sensor_id;sensor_type;location;lat;lon;timestamp;P1;durP1;ratioP1;P2;durP2;ratioP2
23376;SDS011;14353;46.070;13.222;2023-04-03T00:01:00;1.60;;;1.42;;
23376;SDS011;14353;46.070;13.222;2023-04-03T00:03:26;1.30;;;1.20;;
23376;SDS011;14353;46.070;13.222;2023-04-03T00:05:51;1.13;;;1.02;;
23376;SDS011;14353;46.070;13.222;2023-04-03T00:08:17;1.30;;;1.20;;
23376;SDS011;14353;46.070;13.222;2023-04-03T00:10:43;1.20;;;1.10;;
23376;SDS011;14353;46.070;13.222;2023-04-03T00:13:09;1.63;;;1.30;;
23376;SDS011;14353;46.070;13.222;2023-04-03T00:15:35;2.25;;;1.48;;
23376;SDS011;14353;46.070;13.222;2023-04-03T00:18:03;1.88;;;1.65;;
23376;SDS011;14353;46.070;13.222;2023-04-03T00:20:30;1.45;;;1.35;;
23376;SDS011;14353;46.070;13.222;2023-04-03T00:22:55;1.83;;;1.52;;
23376;SDS011;14353;46.070;13.222;2023-04-03T00:25:21;1.38;;;1.27;;
23376;SDS011;14353;46.070;13.222;2023-04-03T00:27:47;1.90;;;1.42;;
23376;SDS011;14353;46.070;13.222;2023-04-03T00:30:14;1.35;;;1.25;;
23376;SDS011;14353;46.070;13.222;2023-04-03T00:32:41;1.30;;;1.20;;
23376;SDS011;14353;46.070;13.222;2023-04-03T00:35:07;1.40;;;1.27;;
23376;SDS011;14353;46.070;13.222;2023-04-03T00:37:33;1.40;;;1.30;;
23376;SDS011;14353;46.070;13.222;2023-04-03T00:39:59;1.65;;;1.50;;
23376;SDS011;14353;46.070;13.222;2023-04-03T00:42:25;1.70;;;1.20;;
23376;SDS011;14353;46.070;13.222;2023-04-03T00:47:22;1.30;;;1.20;;
23376;SDS011;14353;46.070;13.222;2023-04-03T00:49:49;1.88;;;1.40;;
23376;SDS011;14353;46.070;13.222;2023-04-03T00:52:17;1.70;;;1.50;;
23376;SDS011;14353;46.070;13.222;2023-04-03T00:54:46;1.65;;;1.40;;
23376;SDS011;14353;46.070;13.222;2023-04-03T00:57:13;1.88;;;1.48;;
23376;SDS011;14353;46.070;13.222;2023-04-03T00:59:42;1.30;;;1.20;;
23376;SDS011;14353;46.070;13.222;2023-04-03T01:02:11;1.48;;;1.38;;
23376;SDS011;14353;46.070;13.222;2023-04-03T01:04:37;1.30;;;1.20;;
23376;SDS011;14353;46.070;13.222;2023-04-03T01:07:12;1.55;;;1.40;;
23376;SDS011;14353;46.070;13.222;2023-04-03T01:09:42;2.78;;;1.50;;
23376;SDS011;14353;46.070;13.222;2023-04-03T01:12:19;1.50;;;1.40;;
23376;SDS011;14353;46.070;13.222;2023-04-03T01:14:45;1.90;;;1.48;;
23376;SDS011;14353;46.070;13.222;2023-04-03T01:17:33;1.52;;;1.42;;
23376;SDS011;14353;46.070;13.222;2023-04-03T01:23:03;1.60;;;1.40;;
23376;SDS011;14353;46.070;13.222;2023-04-03T01:25:36;1.50;;;1.40;;
23376;SDS011;14353;46.070;13.222;2023-04-03T01:28:08;1.45;;;1.30;;
23376;SDS011;14353;46.070;13.222;2023-04-03T01:30:40;1.40;;;1.30;;
23376;SDS011;14353;46.070;13.222;2023-04-03T01:33:25;1.52;;;1.42;;
23376;SDS011;14353;46.070;13.222;2023-04-03T01:35:51;1.65;;;1.50;;
23376;SDS011;14353;46.070;13.222;2023-04-03T01:38:17;1.58;;;1.30;;
23376;SDS011;14353;46.070;13.222;2023-04-03T01:40:42;1.40;;;1.30;;
23376;SDS011;14353;46.070;13.222;2023-04-03T01:43:08;1.63;;;1.30;;
23376;SDS011;14353;46.070;13.222;2023-04-03T01:45:34;1.85;;;1.50;;
23376;SDS011;14353;46.070;13.222;2023-04-03T01:48:00;1.50;;;1.40;;
23376;SDS011;14353;46.070;13.222;2023-04-03T01:50:26;1.40;;;1.30;;
23376;SDS011;14353;46.070;13.222;2023-04-03T01:52:51;1.38;;;1.27;;
23376;SDS011;14353;46.070;13.222;2023-04-03T01:55:17;1.63;;;1.40;;
23376;SDS011;14353;46.070;13.222;2023-04-03T01:57:43;1.73;;;1.50;;
23376;SDS011;14353;46.070;13.222;2023-04-03T02:00:09;1.75;;;1.58;;
23376;SDS011;14353;46.070;13.222;2023-04-03T02:02:35;1.75;;;1.50;;
23376;SDS011;14353;46.070;13.222;2023-04-03T02:05:00;1.55;;;1.45;;
23376;SDS011;14353;46.070;13.222;2023-04-03T02:07:26;1.45;;;1.35;;
23376;SDS011;14353;46.070;13.222;2023-04-03T02:09:52;1.40;;;1.30;;
23376;SDS011;14353;46.070;13.222;2023-04-03T02:12:18;1.60;;;1.48;;
23376;SDS011;14353;46.070;13.222;2023-04-03T02:14:43;1.50;;;1.27;;
23376;SDS011;14353;46.070;13.222;2023-04-03T02:17:09;1.48;;;1.38;;
23376;SDS011;14353;46.070;13.222;2023-04-03T02:19:35;1.33;;;1.23;;
23376;SDS011;14353;46.070;13.222;2023-04-03T02:22:01;1.65;;;1.55;;
23376;SDS011;14353;46.070;13.222;2023-04-03T02:24:28;1.70;;;1.33;;
23376;SDS011;14353;46.070;13.222;2023-04-03T02:26:53;1.77;;;1.50;;
23376;SDS011;14353;46.070;13.222;2023-04-03T02:29:19;1.50;;;1.40;;
23376;SDS011;14353;46.070;13.222;2023-04-03T02:31:45;1.42;;;1.33;;
23376;SDS011;14353;46.070;13.222;2023-04-03T02:34:11;1.77;;;1.55;;
23376;SDS011;14353;46.070;13.222;2023-04-03T02:36:37;1.48;;;1.38;;
23376;SDS011;14353;46.070;13.222;2023-04-03T02:39:02;1.40;;;1.30;;
23376;SDS011;14353;46.070;13.222;2023-04-03T02:41:29;1.40;;;1.30;;
23376;SDS011;14353;46.070;13.222;2023-04-03T02:44:00;1.50;;;1.40;;
23376;SDS011;14353;46.070;13.222;2023-04-03T02:46:26;1.52;;;1.35;;
23376;SDS011;14353;46.070;13.222;2023-04-03T02:48:52;1.45;;;1.35;;
23376;SDS011;14353;46.070;13.222;2023-04-03T02:51:17;1.42;;;1.33;;
23376;SDS011;14353;46.070;13.222;2023-04-03T02:53:43;1.55;;;1.45;;
23376;SDS011;14353;46.070;13.222;2023-04-03T02:56:09;1.45;;;1.27;;
23376;SDS011;14353;46.070;13.222;2023-04-03T02:58:35;2.72;;;1.55;;
23376;SDS011;14353;46.070;13.222;2023-04-03T03:01:00;1.60;;;1.42;;
23376;SDS011;14353;46.070;13.222;2023-04-03T03:03:26;1.48;;;1.30;;
23376;SDS011;14353;46.070;13.222;2023-04-03T03:06:02;1.88;;;1.40;;
23376;SDS011;14353;46.070;13.222;2023-04-03T03:08:29;1.17;;;1.08;;
23376;SDS011;14353;46.070;13.222;2023-04-03T03:10:55;1.50;;;1.40;;
23376;SDS011;14353;46.070;13.222;2023-04-03T03:13:21;1.60;;;1.50;;
23376;SDS011;14353;46.070;13.222;2023-04-03T03:15:46;1.40;;;1.30;;
23376;SDS011;14353;46.070;13.222;2023-04-03T03:18:12;1.30;;;1.20;;
23376;SDS011;14353;46.070;13.222;2023-04-03T03:20:37;1.52;;;1.35;;
23376;SDS011;14353;46.070;13.222;2023-04-03T03:23:03;1.63;;;1.30;;
23376;SDS011;14353;46.070;13.222;2023-04-03T03:25:29;1.88;;;1.60;;
23376;SDS011;14353;46.070;13.222;2023-04-03T03:27:54;1.65;;;1.55;;
23376;SDS011;14353;46.070;13.222;2023-04-03T03:30:20;1.40;;;1.30;;
23376;SDS011;14353;46.070;13.222;2023-04-03T03:32:46;1.48;;;1.30;;
23376;SDS011;14353;46.070;13.222;2023-04-03T03:35:11;1.70;;;1.42;;
23376;SDS011;14353;46.070;13.222;2023-04-03T03:37:37;1.40;;;1.30;;
23376;SDS011;14353;46.070;13.222;2023-04-03T03:40:03;1.40;;;1.30;;
23376;SDS011;14353;46.070;13.222;2023-04-03T03:42:29;1.40;;;1.30;;
23376;SDS011;14353;46.070;13.222;2023-04-03T03:44:55;1.42;;;1.30;;
23376;SDS011;14353;46.070;13.222;2023-04-03T03:47:20;1.40;;;1.30;;
23376;SDS011;14353;46.070;13.222;2023-04-03T03:49:46;1.40;;;1.30;;
23376;SDS011;14353;46.070;13.222;2023-04-03T03:52:12;1.50;;;1.33;;
23376;SDS011;14353;46.070;13.222;2023-04-03T03:54:37;1.20;;;1.10;;
23376;SDS011;14353;46.070;13.222;2023-04-03T03:57:03;1.40;;;1.30;;
23376;SDS011;14353;46.070;13.222;2023-04-03T03:59:30;1.20;;;1.10;;
23376;SDS011;14353;46.070;13.222;2023-04-03T04:01:55;1.42;;;1.33;;
23376;SDS011;14353;46.070;13.222;2023-04-03T04:04:21;1.50;;;1.40;;
23376;SDS011;14353;46.070;13.222;2023-04-03T04:06:47;1.40;;;1.30;;
23376;SDS011;14353;46.070;13.222;2023-04-03T04:09:13;1.42;;;1.30;;
23376;SDS011;14353;46.070;13.222;2023-04-03T04:11:39;1.45;;;1.30;;
23376;SDS011;14353;46.070;13.222;2023-04-03T04:14:05;1.35;;;1.25;;
23376;SDS011;14353;46.070;13.222;2023-04-03T04:16:32;1.40;;;1.30;;
23376;SDS011;14353;46.070;13.222;2023-04-03T04:18:57;1.92;;;1.38;;
23376;SDS011;14353;46.070;13.222;2023-04-03T04:21:23;1.33;;;1.20;;
23376;SDS011;14353;46.070;13.222;2023-04-03T04:23:49;1.20;;;1.10;;
23376;SDS011;14353;46.070;13.222;2023-04-03T04:26:15;1.40;;;1.30;;
23376;SDS011;14353;46.070;13.222;2023-04-03T04:28:40;1.20;;;1.10;;
23376;SDS011;14353;46.070;13.222;2023-04-03T04:31:06;1.73;;;1.40;;
23376;SDS011;14353;46.070;13.222;2023-04-03T04:33:32;1.73;;;1.35;;
23376;SDS011;14353;46.070;13.222;2023-04-03T04:35:57;1.30;;;1.20;;
23376;SDS011;14353;46.070;13.222;2023-04-03T04:38:23;1.25;;;1.15;;
23376;SDS011;14353;46.070;13.222;2023-04-03T04:40:49;1.23;;;1.13;;
23376;SDS011;14353;46.070;13.222;2023-04-03T04:43:16;1.40;;;1.30;;
23376;SDS011;14353;46.070;13.222;2023-04-03T04:45:42;1.23;;;1.13;;
23376;SDS011;14353;46.070;13.222;2023-04-03T04:48:07;1.35;;;1.25;;
23376;SDS011;14353;46.070;13.222;2023-04-03T04:50:33;1.20;;;1.10;;
23376;SDS011;14353;46.070;13.222;2023-04-03T04:52:59;1.23;;;1.10;;
23376;SDS011;14353;46.070;13.222;2023-04-03T04:55:25;1.50;;;1.40;;
23376;SDS011;14353;46.070;13.222;2023-04-03T04:57:51;1.30;;;1.20;;
23376;SDS011;14353;46.070;13.222;2023-04-03T05:00:16;1.50;;;1.40;;
23376;SDS011;14353;46.070;13.222;2023-04-03T05:02:43;1.30;;;1.20;;
23376;SDS011;14353;46.070;13.222;2023-04-03T05:05:08;1.40;;;1.20;;
23376;SDS011;14353;46.070;13.222;2023-04-03T05:07:34;1.60;;;1.38;;
23376;SDS011;14353;46.070;13.222;2023-04-03T05:10:00;1.40;;;1.30;;
23376;SDS011;14353;46.070;13.222;2023-04-03T05:12:27;1.40;;;1.30;;
23376;SDS011;14353;46.070;13.222;2023-04-03T05:14:53;1.25;;;1.15;;
23376;SDS011;14353;46.070;13.222;2023-04-03T05:17:19;2.20;;;1.10;;
23376;SDS011;14353;46.070;13.222;2023-04-03T05:19:45;1.35;;;1.25;;
23376;SDS011;14353;46.070;13.222;2023-04-03T05:22:10;1.27;;;1.08;;
23376;SDS011;14353;46.070;13.222;2023-04-03T05:24:36;1.75;;;1.27;;
23376;SDS011;14353;46.070;13.222;2023-04-03T05:27:02;1.85;;;1.38;;
23376;SDS011;14353;46.070;13.222;2023-04-03T05:29:28;1.10;;;1.00;;
23376;SDS011;14353;46.070;13.222;2023-04-03T05:31:54;1.23;;;1.13;;
23376;SDS011;14353;46.070;13.222;2023-04-03T05:34:20;4.25;;;1.10;;
23376;SDS011;14353;46.070;13.222;2023-04-03T05:36:46;2.92;;;1.00;;
23376;SDS011;14353;46.070;13.222;2023-04-03T05:39:12;3.58;;;1.33;;
23376;SDS011;14353;46.070;13.222;2023-04-03T05:41:37;3.72;;;1.20;;
23376;SDS011;14353;46.070;13.222;2023-04-03T05:44:03;1.60;;;1.20;;
23376;SDS011;14353;46.070;13.222;2023-04-03T05:46:29;5.93;;;1.60;;
23376;SDS011;14353;46.070;13.222;2023-04-03T05:48:55;3.55;;;1.13;;
23376;SDS011;14353;46.070;13.222;2023-04-03T05:51:25;1.98;;;1.02;;
23376;SDS011;14353;46.070;13.222;2023-04-03T05:53:59;2.22;;;1.20;;
23376;SDS011;14353;46.070;13.222;2023-04-03T05:56:31;3.08;;;1.15;;
23376;SDS011;14353;46.070;13.222;2023-04-03T05:58:56;3.22;;;1.20;;
23376;SDS011;14353;46.070;13.222;2023-04-03T06:01:22;4.88;;;1.10;;
23376;SDS011;14353;46.070;13.222;2023-04-03T06:03:48;4.57;;;1.23;;
23376;SDS011;14353;46.070;13.222;2023-04-03T06:06:14;3.92;;;1.30;;
23376;SDS011;14353;46.070;13.222;2023-04-03T06:08:40;7.28;;;1.20;;
23376;SDS011;14353;46.070;13.222;2023-04-03T06:11:06;10.30;;;1.30;;
23376;SDS011;14353;46.070;13.222;2023-04-03T06:13:33;5.93;;;1.25;;
23376;SDS011;14353;46.070;13.222;2023-04-03T06:16:00;4.85;;;1.25;;
23376;SDS011;14353;46.070;13.222;2023-04-03T06:18:26;10.38;;;1.50;;
23376;SDS011;14353;46.070;13.222;2023-04-03T06:20:51;6.25;;;1.27;;
23376;SDS011;14353;46.070;13.222;2023-04-03T06:23:17;6.93;;;1.50;;
23376;SDS011;14353;46.070;13.222;2023-04-03T06:25:43;8.98;;;1.40;;
23376;SDS011;14353;46.070;13.222;2023-04-03T06:28:09;3.97;;;1.13;;
23376;SDS011;14353;46.070;13.222;2023-04-03T06:30:35;5.68;;;1.30;;
23376;SDS011;14353;46.070;13.222;2023-04-03T06:33:01;9.15;;;1.50;;
23376;SDS011;14353;46.070;13.222;2023-04-03T06:35:28;6.93;;;1.50;;
23376;SDS011;14353;46.070;13.222;2023-04-03T06:37:55;11.68;;;1.80;;
23376;SDS011;14353;46.070;13.222;2023-04-03T06:40:22;10.63;;;1.60;;
23376;SDS011;14353;46.070;13.222;2023-04-03T06:42:51;3.70;;;1.20;;
23376;SDS011;14353;46.070;13.222;2023-04-03T06:45:17;10.52;;;1.50;;
23376;SDS011;14353;46.070;13.222;2023-04-03T06:47:42;7.13;;;1.30;;
23376;SDS011;14353;46.070;13.222;2023-04-03T06:50:09;6.93;;;1.50;;
23376;SDS011;14353;46.070;13.222;2023-04-03T06:52:36;10.52;;;1.50;;
23376;SDS011;14353;46.070;13.222;2023-04-03T06:55:02;7.55;;;1.40;;
23376;SDS011;14353;46.070;13.222;2023-04-03T06:57:29;5.45;;;1.23;;
23376;SDS011;14353;46.070;13.222;2023-04-03T06:59:54;5.70;;;1.30;;
23376;SDS011;14353;46.070;13.222;2023-04-03T07:02:20;7.88;;;1.40;;
23376;SDS011;14353;46.070;13.222;2023-04-03T07:04:47;6.57;;;1.50;;
23376;SDS011;14353;46.070;13.222;2023-04-03T07:07:16;6.53;;;1.65;;
23376;SDS011;14353;46.070;13.222;2023-04-03T07:09:42;6.25;;;1.58;;
23376;SDS011;14353;46.070;13.222;2023-04-03T07:12:08;5.38;;;1.52;;
23376;SDS011;14353;46.070;13.222;2023-04-03T07:14:34;8.88;;;1.58;;
23376;SDS011;14353;46.070;13.222;2023-04-03T07:17:00;5.15;;;1.50;;
23376;SDS011;14353;46.070;13.222;2023-04-03T07:19:25;6.22;;;1.27;;
23376;SDS011;14353;46.070;13.222;2023-04-03T07:21:53;9.85;;;1.40;;
23376;SDS011;14353;46.070;13.222;2023-04-03T07:24:19;5.30;;;1.42;;
23376;SDS011;14353;46.070;13.222;2023-04-03T07:26:48;9.60;;;1.30;;
23376;SDS011;14353;46.070;13.222;2023-04-03T07:29:15;4.00;;;1.30;;
23376;SDS011;14353;46.070;13.222;2023-04-03T07:31:41;7.03;;;1.20;;
23376;SDS011;14353;46.070;13.222;2023-04-03T07:34:07;3.60;;;1.20;;
23376;SDS011;14353;46.070;13.222;2023-04-03T07:36:33;7.30;;;1.30;;
23376;SDS011;14353;46.070;13.222;2023-04-03T07:38:58;6.10;;;1.60;;
23376;SDS011;14353;46.070;13.222;2023-04-03T07:41:24;4.25;;;1.40;;
23376;SDS011;14353;46.070;13.222;2023-04-03T07:43:50;4.47;;;1.52;;
23376;SDS011;14353;46.070;13.222;2023-04-03T07:46:17;6.40;;;1.63;;
23376;SDS011;14353;46.070;13.222;2023-04-03T07:48:42;6.75;;;1.38;;
23376;SDS011;14353;46.070;13.222;2023-04-03T07:51:09;4.07;;;1.38;;
23376;SDS011;14353;46.070;13.222;2023-04-03T07:53:35;3.80;;;1.42;;
23376;SDS011;14353;46.070;13.222;2023-04-03T07:56:01;3.85;;;1.30;;
23376;SDS011;14353;46.070;13.222;2023-04-03T07:58:27;6.80;;;1.70;;
23376;SDS011;14353;46.070;13.222;2023-04-03T08:00:54;4.18;;;1.40;;
23376;SDS011;14353;46.070;13.222;2023-04-03T08:03:21;4.95;;;1.50;;
23376;SDS011;14353;46.070;13.222;2023-04-03T08:05:47;10.48;;;1.70;;
23376;SDS011;14353;46.070;13.222;2023-04-03T08:08:15;7.75;;;1.95;;
23376;SDS011;14353;46.070;13.222;2023-04-03T08:10:42;9.05;;;1.67;;
23376;SDS011;14353;46.070;13.222;2023-04-03T08:13:08;4.43;;;1.50;;
23376;SDS011;14353;46.070;13.222;2023-04-03T08:15:34;8.50;;;1.58;;
23376;SDS011;14353;46.070;13.222;2023-04-03T08:18:01;12.30;;;1.52;;
23376;SDS011;14353;46.070;13.222;2023-04-03T08:20:27;11.13;;;1.60;;
23376;SDS011;14353;46.070;13.222;2023-04-03T08:22:53;10.25;;;1.70;;
23376;SDS011;14353;46.070;13.222;2023-04-03T08:25:19;5.60;;;1.70;;
23376;SDS011;14353;46.070;13.222;2023-04-03T08:27:45;8.63;;;1.60;;
23376;SDS011;14353;46.070;13.222;2023-04-03T08:30:11;12.65;;;1.50;;
23376;SDS011;14353;46.070;13.222;2023-04-03T08:32:37;7.22;;;1.58;;
23376;SDS011;14353;46.070;13.222;2023-04-03T08:35:04;5.72;;;1.60;;
23376;SDS011;14353;46.070;13.222;2023-04-03T08:37:30;5.82;;;1.27;;
23376;SDS011;14353;46.070;13.222;2023-04-03T08:39:56;5.50;;;1.45;;
23376;SDS011;14353;46.070;13.222;2023-04-03T08:45:21;9.45;;;1.38;;
23376;SDS011;14353;46.070;13.222;2023-04-03T08:50:30;4.25;;;1.30;;
23376;SDS011;14353;46.070;13.222;2023-04-03T08:53:03;3.58;;;1.10;;
23376;SDS011;14353;46.070;13.222;2023-04-03T08:55:37;1.70;;;1.02;;
23376;SDS011;14353;46.070;13.222;2023-04-03T08:58:30;2.15;;;1.17;;
23376;SDS011;14353;46.070;13.222;2023-04-03T09:01:02;4.87;;;1.40;;
23376;SDS011;14353;46.070;13.222;2023-04-03T09:03:32;3.15;;;1.30;;
23376;SDS011;14353;46.070;13.222;2023-04-03T09:08:30;4.05;;;1.35;;
23376;SDS011;14353;46.070;13.222;2023-04-03T09:19:39;5.85;;;1.50;;
23376;SDS011;14353;46.070;13.222;2023-04-03T09:24:58;3.70;;;1.20;;
23376;SDS011;14353;46.070;13.222;2023-04-03T09:27:29;5.93;;;1.30;;
23376;SDS011;14353;46.070;13.222;2023-04-03T09:29:56;5.43;;;1.10;;
23376;SDS011;14353;46.070;13.222;2023-04-03T09:32:29;3.72;;;1.20;;
23376;SDS011;14353;46.070;13.222;2023-04-03T09:35:01;2.95;;;1.00;;
23376;SDS011;14353;46.070;13.222;2023-04-03T09:37:40;4.47;;;1.05;;
23376;SDS011;14353;46.070;13.222;2023-04-03T09:45:41;3.17;;;1.20;;
23376;SDS011;14353;46.070;13.222;2023-04-03T09:50:57;4.47;;;1.15;;
23376;SDS011;14353;46.070;13.222;2023-04-03T09:55:59;6.85;;;1.35;;
23376;SDS011;14353;46.070;13.222;2023-04-03T09:58:30;4.82;;;1.20;;
23376;SDS011;14353;46.070;13.222;2023-04-03T10:00:59;5.63;;;1.40;;
23376;SDS011;14353;46.070;13.222;2023-04-03T10:03:34;4.18;;;1.17;;
23376;SDS011;14353;46.070;13.222;2023-04-03T10:06:02;9.43;;;1.50;;
23376;SDS011;14353;46.070;13.222;2023-04-03T10:08:32;7.82;;;1.23;;
23376;SDS011;14353;46.070;13.222;2023-04-03T10:11:14;9.77;;;1.70;;
23376;SDS011;14353;46.070;13.222;2023-04-03T10:14:00;5.30;;;1.38;;
23376;SDS011;14353;46.070;13.222;2023-04-03T10:16:35;6.57;;;1.80;;
23376;SDS011;14353;46.070;13.222;2023-04-03T10:21:40;6.20;;;1.60;;
23376;SDS011;14353;46.070;13.222;2023-04-03T10:24:14;8.52;;;1.70;;
23376;SDS011;14353;46.070;13.222;2023-04-03T10:27:02;13.73;;;1.60;;
23376;SDS011;14353;46.070;13.222;2023-04-03T10:37:55;7.95;;;1.55;;
23376;SDS011;14353;46.070;13.222;2023-04-03T10:40:51;7.95;;;1.15;;
23376;SDS011;14353;46.070;13.222;2023-04-03T10:43:42;7.07;;;1.13;;
23376;SDS011;14353;46.070;13.222;2023-04-03T10:46:36;5.68;;;1.30;;
23376;SDS011;14353;46.070;13.222;2023-04-03T10:54:45;5.82;;;1.30;;
23376;SDS011;14353;46.070;13.222;2023-04-03T10:57:12;6.05;;;1.20;;
23376;SDS011;14353;46.070;13.222;2023-04-03T10:59:43;5.38;;;1.20;;
23376;SDS011;14353;46.070;13.222;2023-04-03T11:04:52;11.50;;;1.48;;
23376;SDS011;14353;46.070;13.222;2023-04-03T11:07:29;6.47;;;1.20;;
23376;SDS011;14353;46.070;13.222;2023-04-03T11:10:03;4.30;;;1.33;;
23376;SDS011;14353;46.070;13.222;2023-04-03T11:15:16;7.47;;;1.52;;
23376;SDS011;14353;46.070;13.222;2023-04-03T11:17:50;10.85;;;1.50;;
23376;SDS011;14353;46.070;13.222;2023-04-03T11:20:36;10.07;;;1.60;;
23376;SDS011;14353;46.070;13.222;2023-04-03T11:23:04;9.82;;;1.48;;
23376;SDS011;14353;46.070;13.222;2023-04-03T11:25:37;8.00;;;1.33;;
23376;SDS011;14353;46.070;13.222;2023-04-03T11:28:09;3.75;;;1.42;;
23376;SDS011;14353;46.070;13.222;2023-04-03T11:38:47;3.47;;;1.30;;
23376;SDS011;14353;46.070;13.222;2023-04-03T11:41:17;9.88;;;1.30;;
23376;SDS011;14353;46.070;13.222;2023-04-03T12:16:22;0.60;;;0.60;;
23376;SDS011;14353;46.070;13.222;2023-04-03T12:19:02;1.88;;;0.90;;
23376;SDS011;14353;46.070;13.222;2023-04-03T12:29:15;1.83;;;0.70;;
23376;SDS011;14353;46.070;13.222;2023-04-03T12:34:33;1.30;;;0.65;;
23376;SDS011;14353;46.070;13.222;2023-04-03T12:45:19;3.58;;;0.88;;
23376;SDS011;14353;46.070;13.222;2023-04-03T12:47:48;0.82;;;0.50;;
23376;SDS011;14353;46.070;13.222;2023-04-03T12:50:28;1.40;;;0.70;;
23376;SDS011;14353;46.070;13.222;2023-04-03T12:55:31;3.20;;;0.73;;
23376;SDS011;14353;46.070;13.222;2023-04-03T12:57:57;1.83;;;0.73;;
23376;SDS011;14353;46.070;13.222;2023-04-03T13:00:45;2.20;;;0.63;;
23376;SDS011;14353;46.070;13.222;2023-04-03T13:03:24;0.88;;;0.70;;
23376;SDS011;14353;46.070;13.222;2023-04-03T13:05:57;3.13;;;0.70;;
23376;SDS011;14353;46.070;13.222;2023-04-03T13:08:26;1.33;;;0.60;;
23376;SDS011;14353;46.070;13.222;2023-04-03T13:13:20;1.40;;;0.60;;
23376;SDS011;14353;46.070;13.222;2023-04-03T13:15:48;3.10;;;0.60;;
23376;SDS011;14353;46.070;13.222;2023-04-03T13:18:25;1.27;;;0.60;;
23376;SDS011;14353;46.070;13.222;2023-04-03T13:20:58;1.85;;;0.60;;
23376;SDS011;14353;46.070;13.222;2023-04-03T13:23:27;4.38;;;0.65;;
23376;SDS011;14353;46.070;13.222;2023-04-03T13:25:54;2.15;;;0.75;;
23376;SDS011;14353;46.070;13.222;2023-04-03T13:28:23;2.42;;;0.68;;
23376;SDS011;14353;46.070;13.222;2023-04-03T13:31:05;3.63;;;0.90;;
23376;SDS011;14353;46.070;13.222;2023-04-03T13:33:52;2.30;;;0.85;;
23376;SDS011;14353;46.070;13.222;2023-04-03T13:36:22;2.60;;;0.60;;
23376;SDS011;14353;46.070;13.222;2023-04-03T13:41:45;1.33;;;0.60;;
23376;SDS011;14353;46.070;13.222;2023-04-03T13:44:17;1.35;;;0.63;;
23376;SDS011;14353;46.070;13.222;2023-04-03T13:46:46;0.70;;;0.47;;
23376;SDS011;14353;46.070;13.222;2023-04-03T13:49:19;2.33;;;0.80;;
23376;SDS011;14353;46.070;13.222;2023-04-03T13:51:45;1.00;;;0.70;;
23376;SDS011;14353;46.070;13.222;2023-04-03T13:54:20;0.93;;;0.73;;
23376;SDS011;14353;46.070;13.222;2023-04-03T13:56:47;2.03;;;0.63;;
23376;SDS011;14353;46.070;13.222;2023-04-03T13:59:32;0.98;;;0.40;;
23376;SDS011;14353;46.070;13.222;2023-04-03T14:04:31;0.82;;;0.45;;
23376;SDS011;14353;46.070;13.222;2023-04-03T14:07:09;3.20;;;0.60;;
23376;SDS011;14353;46.070;13.222;2023-04-03T14:09:39;1.33;;;0.52;;
23376;SDS011;14353;46.070;13.222;2023-04-03T14:12:11;1.52;;;0.43;;
23376;SDS011;14353;46.070;13.222;2023-04-03T14:14:44;1.67;;;0.70;;
23376;SDS011;14353;46.070;13.222;2023-04-03T14:17:16;0.68;;;0.50;;
23376;SDS011;14353;46.070;13.222;2023-04-03T14:19:44;0.90;;;0.53;;
23376;SDS011;14353;46.070;13.222;2023-04-03T14:24:39;2.30;;;0.50;;
23376;SDS011;14353;46.070;13.222;2023-04-03T14:27:10;0.95;;;0.50;;
23376;SDS011;14353;46.070;13.222;2023-04-03T14:29:41;0.70;;;0.63;;
23376;SDS011;14353;46.070;13.222;2023-04-03T14:32:07;2.53;;;0.60;;
23376;SDS011;14353;46.070;13.222;2023-04-03T14:34:35;1.67;;;0.70;;
23376;SDS011;14353;46.070;13.222;2023-04-03T14:37:01;1.50;;;0.60;;
23376;SDS011;14353;46.070;13.222;2023-04-03T14:39:27;1.13;;;0.60;;
23376;SDS011;14353;46.070;13.222;2023-04-03T14:41:53;2.45;;;0.60;;
23376;SDS011;14353;46.070;13.222;2023-04-03T14:44:18;1.00;;;0.52;;
23376;SDS011;14353;46.070;13.222;2023-04-03T14:46:44;0.73;;;0.50;;
23376;SDS011;14353;46.070;13.222;2023-04-03T14:49:18;2.03;;;0.50;;
23376;SDS011;14353;46.070;13.222;2023-04-03T14:51:46;0.50;;;0.40;;
23376;SDS011;14353;46.070;13.222;2023-04-03T14:54:13;1.45;;;0.63;;
23376;SDS011;14353;46.070;13.222;2023-04-03T14:56:41;1.05;;;0.50;;
23376;SDS011;14353;46.070;13.222;2023-04-03T14:59:13;1.85;;;0.60;;
23376;SDS011;14353;46.070;13.222;2023-04-03T15:01:40;1.50;;;0.60;;
23376;SDS011;14353;46.070;13.222;2023-04-03T15:04:10;0.70;;;0.63;;
23376;SDS011;14353;46.070;13.222;2023-04-03T15:06:44;0.52;;;0.50;;
23376;SDS011;14353;46.070;13.222;2023-04-03T15:11:49;1.52;;;0.43;;
23376;SDS011;14353;46.070;13.222;2023-04-03T15:14:17;1.35;;;0.43;;
23376;SDS011;14353;46.070;13.222;2023-04-03T15:16:43;2.40;;;0.80;;
23376;SDS011;14353;46.070;13.222;2023-04-03T15:19:09;0.98;;;0.45;;
23376;SDS011;14353;46.070;13.222;2023-04-03T15:21:35;0.75;;;0.60;;
23376;SDS011;14353;46.070;13.222;2023-04-03T15:24:01;0.95;;;0.55;;
23376;SDS011;14353;46.070;13.222;2023-04-03T15:26:27;1.30;;;0.60;;
23376;SDS011;14353;46.070;13.222;2023-04-03T15:28:52;0.70;;;0.40;;
23376;SDS011;14353;46.070;13.222;2023-04-03T15:31:18;1.23;;;0.50;;
23376;SDS011;14353;46.070;13.222;2023-04-03T15:33:44;1.42;;;0.60;;
23376;SDS011;14353;46.070;13.222;2023-04-03T15:36:09;1.30;;;0.50;;
23376;SDS011;14353;46.070;13.222;2023-04-03T15:38:35;0.98;;;0.50;;
23376;SDS011;14353;46.070;13.222;2023-04-03T15:41:03;1.55;;;0.52;;
23376;SDS011;14353;46.070;13.222;2023-04-03T15:43:29;0.60;;;0.47;;
23376;SDS011;14353;46.070;13.222;2023-04-03T15:45:58;1.27;;;0.40;;
23376;SDS011;14353;46.070;13.222;2023-04-03T15:48:25;0.68;;;0.50;;
23376;SDS011;14353;46.070;13.222;2023-04-03T15:50:51;0.50;;;0.43;;
23376;SDS011;14353;46.070;13.222;2023-04-03T15:53:17;0.68;;;0.50;;
23376;SDS011;14353;46.070;13.222;2023-04-03T15:55:43;0.75;;;0.50;;
23376;SDS011;14353;46.070;13.222;2023-04-03T15:58:09;3.20;;;0.40;;
23376;SDS011;14353;46.070;13.222;2023-04-03T16:00:35;1.15;;;0.52;;
23376;SDS011;14353;46.070;13.222;2023-04-03T16:03:07;2.25;;;0.70;;
23376;SDS011;14353;46.070;13.222;2023-04-03T16:08:02;1.33;;;0.60;;
23376;SDS011;14353;46.070;13.222;2023-04-03T16:10:30;1.75;;;0.55;;
23376;SDS011;14353;46.070;13.222;2023-04-03T16:12:56;0.77;;;0.40;;
23376;SDS011;14353;46.070;13.222;2023-04-03T16:15:22;0.40;;;0.38;;
23376;SDS011;14353;46.070;13.222;2023-04-03T16:17:49;0.70;;;0.50;;
23376;SDS011;14353;46.070;13.222;2023-04-03T16:20:15;1.63;;;0.45;;
23376;SDS011;14353;46.070;13.222;2023-04-03T16:22:42;1.27;;;0.63;;
23376;SDS011;14353;46.070;13.222;2023-04-03T16:25:08;1.10;;;0.47;;
23376;SDS011;14353;46.070;13.222;2023-04-03T16:27:34;1.98;;;0.50;;
23376;SDS011;14353;46.070;13.222;2023-04-03T16:30:00;0.85;;;0.55;;
23376;SDS011;14353;46.070;13.222;2023-04-03T16:32:27;1.65;;;0.52;;
23376;SDS011;14353;46.070;13.222;2023-04-03T16:34:56;1.02;;;0.50;;
23376;SDS011;14353;46.070;13.222;2023-04-03T16:37:22;2.45;;;0.40;;
23376;SDS011;14353;46.070;13.222;2023-04-03T16:39:48;2.13;;;0.50;;
23376;SDS011;14353;46.070;13.222;2023-04-03T16:42:14;0.60;;;0.47;;
23376;SDS011;14353;46.070;13.222;2023-04-03T16:44:40;1.02;;;0.50;;
23376;SDS011;14353;46.070;13.222;2023-04-03T16:47:06;1.67;;;0.40;;
23376;SDS011;14353;46.070;13.222;2023-04-03T16:49:33;1.35;;;0.60;;
23376;SDS011;14353;46.070;13.222;2023-04-03T16:52:02;2.80;;;0.60;;
23376;SDS011;14353;46.070;13.222;2023-04-03T16:54:29;0.40;;;0.40;;